Time;durP1;ratioP1;P1;durP2;ratioP2;P2;SDS_P1;SDS_P2;PMS_P1;PMS_P2;Temp;Humidity;BMP_temperature;BMP_pressure;BME280_temperature;BME280_humidity;BME280_pressure;Samples;Min_cycle;Max_cycle;Signal;HPM_P1;HPM_P2
2022/05/12 00:01:16;;;;;;;;;;;14.60;99.90;;;;;;5033099;28;19913;-62
2022/05/12 00:03:42;;;;;;;;;;;14.60;99.90;;;;;;5045620;28;20065;-63
2022/05/12 00:06:08;;;;;;;;;;;14.50;99.90;;;;;;5048945;28;19916;-62
2022/05/12 00:08:34;;;;;;;;;;;14.50;99.90;;;;;;5041058;28;19955;-63
2022/05/12 00:10:59;;;;;;;;;;;14.40;99.90;;;;;;5049009;28;19959;-62
2022/05/12 00:13:25;;;;;;;;;;;14.30;99.90;;;;;;5039911;28;19916;-62
2022/05/12 00:15:52;;;;;;;;;;;14.30;99.90;;;;;;5043138;28;19917;-62
2022/05/12 00:18:18;;;;;;;;;;;14.30;99.90;;;;;;5038465;28;19995;-63
2022/05/12 00:20:44;;;;;;;;;;;14.20;99.90;;;;;;5030687;28;19953;-62
2022/05/12 00:23:12;;;;;;;;;;;14.20;99.90;;;;;;5047699;28;19909;-62
2022/05/12 00:25:38;;;;;;;;;;;14.10;99.90;;;;;;5030269;28;19921;-62
2022/05/12 00:28:04;;;;;;;;;;;14.10;99.90;;;;;;5047345;28;19932;-63
2022/05/12 00:30:29;;;;;;;;;;;14.20;99.90;;;;;;5030556;28;19909;-62
2022/05/12 00:32:55;;;;;;;;;;;14.10;99.90;;;;;;5047174;28;19908;-62
2022/05/12 00:35:20;;;;;;;;;;;14.10;99.90;;;;;;5049953;28;19905;-62
2022/05/12 00:37:45;;;;;;;;;;;14.10;99.90;;;;;;5034063;28;20434;-62
2022/05/12 00:40:12;;;;;;;;;;;14.00;99.90;;;;;;5049869;28;19958;-63
2022/05/12 00:42:51;;;;;;;;;;;13.90;99.90;;;;;;5032694;28;20390;-62
2022/05/12 00:45:16;;;;;;;;;;;13.90;99.90;;;;;;5049606;28;19912;-62
2022/05/12 00:47:41;;;;;;;;;;;13.90;99.90;;;;;;5033335;28;19999;-62
2022/05/12 00:50:07;;;;;;;;;;;13.90;99.90;;;;;;5049518;28;19911;-62
2022/05/12 00:52:33;;;;;;;;;;;13.90;99.90;;;;;;5032147;28;19915;-62
2022/05/12 00:55:06;;;;;;;;;;;13.90;99.90;;;;;;5049634;28;19912;-62
2022/05/12 00:57:34;;;;;;;;;;;13.80;99.90;;;;;;5031620;28;19909;-62
2022/05/12 00:59:59;;;;;;;;;;;13.70;99.90;;;;;;5039922;28;20288;-62
2022/05/12 01:02:26;;;;;;;;;;;13.80;99.90;;;;;;5030647;28;20322;-62
2022/05/12 01:04:54;;;;;;;;;;;13.70;99.90;;;;;;5049315;28;20373;-62
2022/05/12 01:07:20;;;;;;;;;;;13.80;99.90;;;;;;5029681;28;20396;-62
2022/05/12 01:09:45;;;;;;;;;;;13.90;99.90;;;;;;5049221;28;19905;-63
2022/05/12 01:12:11;;;;;;;;;;;14.00;99.90;;;;;;5028660;28;20013;-62
2022/05/12 01:14:36;;;;;;;;;;;14.00;99.90;;;;;;5049238;28;19911;-62
2022/05/12 01:17:02;;;;;;;;;;;14.00;99.90;;;;;;5029602;28;19921;-62
2022/05/12 01:19:29;;;;;;;;;;;14.10;99.90;;;;;;5046848;28;19909;-62
2022/05/12 01:21:55;;;;;;;;;;;14.10;99.90;;;;;;5029033;28;19913;-62
2022/05/12 01:24:22;;;;;;;;;;;14.10;99.90;;;;;;5046493;28;19923;-62
2022/05/12 01:26:48;;;;;;;;;;;14.20;99.90;;;;;;5048883;28;19970;-62
2022/05/12 01:29:13;;;;;;;;;;;14.20;99.90;;;;;;5045448;28;20392;-63
2022/05/12 01:31:39;;;;;;;;;;;14.30;99.90;;;;;;5048819;28;20372;-63
2022/05/12 01:34:06;;;;;;;;;;;14.30;99.90;;;;;;5044149;28;20364;-63
2022/05/12 01:36:31;;;;;;;;;;;14.40;99.90;;;;;;5048785;28;20279;-62
2022/05/12 01:38:57;;;;;;;;;;;14.50;99.90;;;;;;5043229;28;20004;-62
2022/05/12 01:41:23;;;;;;;;;;;14.60;99.90;;;;;;5048738;28;19913;-62
2022/05/12 01:43:48;;;;;;;;;;;14.70;99.90;;;;;;5041601;28;20418;-62
2022/05/12 01:46:14;;;;;;;;;;;14.80;99.90;;;;;;5048688;28;20331;-62
2022/05/12 01:48:39;;;;;;;;;;;14.90;99.90;;;;;;5040371;28;20012;-63
2022/05/12 01:51:05;;;;;;;;;;;15.00;99.90;;;;;;5048852;28;19909;-63
2022/05/12 01:53:30;;;;;;;;;;;15.10;99.90;;;;;;5039315;28;20394;-62
2022/05/12 01:55:56;;;;;;;;;;;15.20;99.90;;;;;;5048614;28;20004;-62
2022/05/12 01:58:22;;;;;;;;;;;15.40;99.90;;;;;;5037950;28;19970;-62
2022/05/12 02:00:47;;;;;;;;;;;15.40;99.90;;;;;;5021671;28;20060;-62
2022/05/12 02:03:13;;;;;;;;;;;15.50;99.90;;;;;;5046014;28;19909;-62
2022/05/12 02:05:39;;;;;;;;;;;15.50;99.90;;;;;;5029034;28;19917;-63
2022/05/12 02:08:06;;;;;;;;;;;15.40;99.90;;;;;;5045934;28;20288;-62
2022/05/12 02:10:35;;;;;;;;;;;15.40;99.90;;;;;;5029166;28;20352;-63
2022/05/12 02:13:00;;;;;;;;;;;15.20;99.90;;;;;;5046335;28;19913;-63
2022/05/12 02:15:26;;;;;;;;;;;15.10;99.90;;;;;;5045163;28;20408;-63
2022/05/12 02:17:51;;;;;;;;;;;14.90;99.90;;;;;;5033116;28;20530;-63
2022/05/12 02:20:18;;;;;;;;;;;14.90;99.90;;;;;;5048665;28;20427;-63
2022/05/12 02:22:44;;;;;;;;;;;14.80;99.90;;;;;;5032445;28;20297;-62
2022/05/12 02:25:09;;;;;;;;;;;14.90;99.90;;;;;;5048541;28;19920;-63
2022/05/12 02:27:35;;;;;;;;;;;14.90;99.90;;;;;;5031445;28;19962;-63
2022/05/12 02:30:01;;;;;;;;;;;15.00;99.90;;;;;;5048566;28;20451;-62
2022/05/12 02:32:29;;;;;;;;;;;15.10;99.90;;;;;;5030236;28;19908;-63
2022/05/12 02:34:55;;;;;;;;;;;15.10;99.90;;;;;;5050011;28;19944;-63
2022/05/12 02:37:21;;;;;;;;;;;15.20;99.90;;;;;;5052544;28;19959;-63
2022/05/12 02:39:47;;;;;;;;;;;15.30;99.90;;;;;;5034291;28;19985;-62
2022/05/12 02:42:12;;;;;;;;;;;15.30;99.90;;;;;;5052307;28;20352;-63
2022/05/12 02:44:38;;;;;;;;;;;15.40;99.90;;;;;;5032256;28;20448;-62
2022/05/12 02:47:04;;;;;;;;;;;15.40;99.90;;;;;;5052323;28;20359;-63
2022/05/12 02:49:30;;;;;;;;;;;15.50;99.90;;;;;;5031644;28;20371;-63
2022/05/12 02:51:55;;;;;;;;;;;15.50;99.90;;;;;;5052053;28;19972;-63
2022/05/12 02:54:21;;;;;;;;;;;15.50;99.90;;;;;;5032665;28;19913;-63
2022/05/12 02:56:46;;;;;;;;;;;15.50;99.90;;;;;;5049748;28;19909;-63
2022/05/12 02:59:12;;;;;;;;;;;15.50;99.90;;;;;;5032492;28;19909;-63
2022/05/12 03:01:58;;;;;;;;;;;15.40;99.90;;;;;;5042603;28;19913;-63
2022/05/12 03:05:03;;;;;;;;;;;15.30;99.90;;;;;;5038292;28;19924;-63
2022/05/12 03:08:08;;;;;;;;;;;15.30;99.90;;;;;;5034272;28;19916;-63
2022/05/12 03:11:13;;;;;;;;;;;15.20;99.90;;;;;;5012296;28;20008;-63
2022/05/12 03:14:19;;;;;;;;;;;15.20;99.90;;;;;;5044140;28;19920;-63
2022/05/12 03:17:24;;;;;;;;;;;15.10;99.90;;;;;;5037576;28;20563;-62
2022/05/12 03:20:31;;;;;;;;;;;15.10;99.90;;;;;;5046457;28;19908;-63
2022/05/12 03:23:35;;;;;;;;;;;15.00;99.90;;;;;;5037904;28;19916;-63
2022/05/12 03:26:40;;;;;;;;;;;14.90;99.90;;;;;;5034331;28;20011;-63
2022/05/12 03:29:46;;;;;;;;;;;14.90;99.90;;;;;;5034102;28;19920;-63
2022/05/12 03:32:51;;;;;;;;;;;14.90;99.90;;;;;;5039829;28;19955;-63
2022/05/12 03:35:56;;;;;;;;;;;14.80;99.90;;;;;;5051208;28;19949;-63
2022/05/12 03:39:02;;;;;;;;;;;14.90;99.90;;;;;;5038043;28;19909;-63
2022/05/12 03:42:08;;;;;;;;;;;14.90;99.90;;;;;;5039750;28;19912;-63
2022/05/12 03:45:13;;;;;;;;;;;14.80;99.90;;;;;;5040205;28;19917;-63
2022/05/12 03:48:18;;;;;;;;;;;14.80;99.90;;;;;;5009184;28;20459;-63
2022/05/12 03:51:23;;;;;;;;;;;14.80;99.90;;;;;;5033692;28;20373;-63
2022/05/12 03:54:28;;;;;;;;;;;14.80;99.90;;;;;;5037649;28;19950;-63
2022/05/12 03:57:34;;;;;;;;;;;14.80;99.90;;;;;;5022472;28;19909;-63
2022/05/12 04:00:39;;;;;;;;;;;14.80;99.90;;;;;;5032057;28;19916;-63
2022/05/12 04:03:45;;;;;;;;;;;14.80;99.90;;;;;;5042224;28;19916;-62
2022/05/12 04:06:50;;;;;;;;;;;14.80;99.90;;;;;;5010529;28;20016;-63
2022/05/12 04:09:35;;;;;;;;;;;14.80;99.90;;;;;;5035997;28;19909;-65
2022/05/12 04:12:00;;;;;;;;;;;14.80;99.90;;;;;;5047853;28;19909;-66
2022/05/12 04:14:26;;;;;;;;;;;14.80;99.90;;;;;;5050522;28;19904;-66
2022/05/12 04:16:51;;;;;;;;;;;14.80;99.90;;;;;;5045681;28;19981;-66
2022/05/12 04:19:17;;;;;;;;;;;14.90;99.90;;;;;;5050529;28;19912;-65
2022/05/12 04:21:42;;;;;;;;;;;15.00;99.90;;;;;;5044754;28;19909;-65
2022/05/12 04:24:08;;;;;;;;;;;15.10;99.90;;;;;;5050415;28;19917;-65
2022/05/12 04:26:38;;;;;;;;;;;15.40;99.90;;;;;;5043109;28;19909;-66
2022/05/12 04:29:04;;;;;;;;;;;15.30;99.90;;;;;;5050266;28;19909;-65
2022/05/12 04:31:30;;;;;;;;;;;15.30;99.90;;;;;;5042656;28;19909;-66
2022/05/12 04:36:40;;;;;;;;;;;15.20;99.90;;;;;;5022591;28;20031;-67
2022/05/12 04:39:06;;;;;;;;;;;15.20;99.90;;;;;;5023576;28;20442;-66
2022/05/12 04:41:32;;;;;;;;;;;15.20;99.90;;;;;;5009487;28;19905;-65
2022/05/12 04:43:58;;;;;;;;;;;15.30;99.90;;;;;;5045404;28;19920;-64
2022/05/12 04:46:25;;;;;;;;;;;15.30;99.90;;;;;;5049018;28;19904;-65
2022/05/12 04:48:51;;;;;;;;;;;15.30;99.90;;;;;;5028826;28;19909;-64
2022/05/12 04:51:17;;;;;;;;;;;15.30;99.90;;;;;;5046500;28;19996;-66
2022/05/12 04:53:42;;;;;;;;;;;15.20;99.90;;;;;;5029190;28;20008;-66
2022/05/12 04:56:08;;;;;;;;;;;15.30;99.90;;;;;;5045023;28;19913;-65
2022/05/12 04:58:33;;;;;;;;;;;15.30;99.90;;;;;;5048510;28;20152;-65
2022/05/12 05:00:59;;;;;;;;;;;15.30;99.90;;;;;;5040433;28;19908;-65
2022/05/12 05:03:24;;;;;;;;;;;15.40;99.90;;;;;;5048391;28;19912;-66
2022/05/12 05:05:50;;;;;;;;;;;15.40;99.90;;;;;;5042869;28;19917;-65
2022/05/12 05:08:17;;;;;;;;;;;15.40;99.90;;;;;;5048065;28;19915;-65
2022/05/12 05:11:03;;;;;;;;;;;16.40;99.90;;;;;;5039699;28;19917;-65
2022/05/12 05:14:08;;;;;;;;;;;16.80;99.90;;;;;;5029509;28;19948;-65
2022/05/12 05:17:13;;;;;;;;;;;17.00;99.90;;;;;;5040036;28;19917;-66
2022/05/12 05:20:18;;;;;;;;;;;19.40;86.90;;;;;;5008450;28;19909;-65
2022/05/12 05:23:24;;;;;;;;;;;18.60;76.10;;;;;;5048170;28;20090;-65
2022/05/12 05:26:29;;;;;;;;;;;21.00;58.30;;;;;;5027641;28;19970;-65
2022/05/12 05:29:34;;;;;;;;;;;21.80;48.00;;;;;;5008293;28;19919;-65
2022/05/12 05:32:40;;;;;;;;;;;21.90;54.80;;;;;;5047698;28;19909;-65
2022/05/12 05:35:45;;;;;;;;;;;21.10;47.00;;;;;;5015747;28;19913;-65
2022/05/12 05:38:50;;;;;;;;;;;22.70;43.90;;;;;;5027789;28;20280;-65
2022/05/12 05:41:56;;;;;;;;;;;24.40;31.60;;;;;;5034949;28;20407;-66
2022/05/12 05:45:08;;;;;;;;;;;23.70;32.60;;;;;;5027222;28;19924;-65
2022/05/12 05:48:06;;;;;;;;;;;22.60;35.90;;;;;;5007821;28;19963;-65
2022/05/12 05:54:15;;;;;;;;;;;22.00;31.70;;;;;;5007916;28;19936;-66
2022/05/12 05:57:21;;;;;;;;;;;23.50;29.80;;;;;;5043429;28;19908;-63
2022/05/12 06:00:27;;;;;;;;;;;22.40;29.20;;;;;;5034641;28;19909;-64
2022/05/12 06:03:32;;;;;;;;;;;21.40;30.60;;;;;;5038241;28;19912;-64
2022/05/12 06:06:37;;;;;;;;;;;23.50;24.30;;;;;;5036529;28;19917;-64
2022/05/12 06:09:43;;;;;;;;;;;25.50;21.10;;;;;;5052465;28;19908;-64
2022/05/12 06:12:49;;;;;;;;;;;24.50;22.10;;;;;;5023457;28;19909;-64
2022/05/12 06:15:53;;;;;;;;;;;22.90;22.50;;;;;;5038205;28;19946;-64
2022/05/12 06:18:59;;;;;;;;;;;22.80;24.90;;;;;;5047538;28;19959;-64
2022/05/12 06:22:04;;;;;;;;;;;21.40;32.00;;;;;;5011885;28;19916;-63
2022/05/12 06:25:09;;;;;;;;;;;21.10;28.70;;;;;;5052316;28;20004;-64
2022/05/12 06:28:14;;;;;;;;;;;20.40;31.00;;;;;;5037729;28;19909;-63
2022/05/12 06:31:24;;;;;;;;;;;21.20;34.10;;;;;;5012674;28;19944;-64
2022/05/12 06:34:25;;;;;;;;;;;20.40;31.60;;;;;;5049789;28;20297;-63
2022/05/12 06:37:30;;;;;;;;;;;22.80;26.30;;;;;;5018908;28;20394;-63
2022/05/12 06:40:36;;;;;;;;;;;21.50;25.60;;;;;;5032218;28;20482;-64
2022/05/12 06:43:45;;;;;;;;;;;20.60;29.60;;;;;;5038118;28;20376;-64
2022/05/12 06:46:49;;;;;;;;;;;20.30;30.30;;;;;;5012252;28;19917;-64
2022/05/12 06:49:54;;;;;;;;;;;20.50;31.40;;;;;;5012331;28;19913;-64
2022/05/12 06:53:00;;;;;;;;;;;20.10;30.80;;;;;;5026562;28;19913;-63
2022/05/12 06:56:05;;;;;;;;;;;20.60;29.40;;;;;;5012138;28;19925;-63
2022/05/12 06:59:10;;;;;;;;;;;20.00;30.50;;;;;;5047781;28;19932;-64
2022/05/12 07:02:16;;;;;;;;;;;19.30;32.20;;;;;;5007369;28;19932;-71
2022/05/12 07:05:21;;;;;;;;;;;20.40;28.50;;;;;;5037155;28;20334;-72
2022/05/12 07:08:26;;;;;;;;;;;20.10;28.60;;;;;;5038982;28;20509;-72
2022/05/12 07:11:32;;;;;;;;;;;23.10;22.40;;;;;;5012065;28;19910;-67
2022/05/12 07:14:37;;;;;;;;;;;23.60;22.70;;;;;;5011960;28;19913;-67
2022/05/12 07:17:45;;;;;;;;;;;22.80;20.90;;;;;;5035542;28;19920;-67
2022/05/12 07:26:55;;;;;;;;;;;22.60;21.20;;;;;;5011979;28;19940;-66
2022/05/12 07:30:01;;;;;;;;;;;23.20;22.60;;;;;;5040159;28;20333;-67
2022/05/12 07:33:06;;;;;;;;;;;23.80;19.70;;;;;;5038284;28;20364;-67
2022/05/12 07:36:11;;;;;;;;;;;24.00;19.10;;;;;;5040165;28;20390;-67
2022/05/12 07:39:17;;;;;;;;;;;24.30;19.70;;;;;;5046701;28;19916;-68
2022/05/12 07:42:22;;;;;;;;;;;24.80;15.90;;;;;;5015361;28;20003;-67
2022/05/12 07:45:28;;;;;;;;;;;24.10;15.90;;;;;;5036190;28;19984;-67
2022/05/12 07:48:33;;;;;;;;;;;23.80;17.20;;;;;;5037895;28;19920;-68
2022/05/12 07:51:38;;;;;;;;;;;25.80;15.00;;;;;;5039964;28;20058;-68
2022/05/12 07:54:44;;;;;;;;;;;25.50;13.70;;;;;;5050841;28;20265;-68
2022/05/12 07:57:49;;;;;;;;;;;24.00;13.90;;;;;;5022486;28;20364;-68
2022/05/12 08:00:54;;;;;;;;;;;23.00;18.50;;;;;;5036277;28;19909;-67
2022/05/12 08:04:00;;;;;;;;;;;22.30;19.00;;;;;;5041569;28;19908;-67
2022/05/12 08:07:05;;;;;;;;;;;22.60;19.80;;;;;;5010152;28;19917;-68
2022/05/12 08:10:10;;;;;;;;;;;22.30;17.90;;;;;;5035893;28;19962;-68
2022/05/12 08:13:16;;;;;;;;;;;21.40;20.40;;;;;;5029216;28;19967;-68
2022/05/12 08:16:21;;;;;;;;;;;21.10;22.00;;;;;;5026247;28;19916;-67
2022/05/12 08:19:26;;;;;;;;;;;22.90;18.40;;;;;;5050191;28;19912;-68
2022/05/12 08:22:32;;;;;;;;;;;23.10;17.70;;;;;;5037195;28;19999;-67
2022/05/12 08:25:37;;;;;;;;;;;23.80;14.40;;;;;;5030170;28;19917;-68
2022/05/12 08:28:42;;;;;;;;;;;23.70;13.90;;;;;;5036369;28;20331;-67
2022/05/12 08:31:48;;;;;;;;;;;24.00;12.70;;;;;;5009436;28;20435;-68
2022/05/12 08:34:53;;;;;;;;;;;26.50;8.20;;;;;;5039042;28;19908;-68
2022/05/12 08:37:58;;;;;;;;;;;25.40;8.80;;;;;;5024185;28;19913;-67
2022/05/12 08:41:02;;;;;;;;;;;27.40;9.00;;;;;;5010179;28;19909;-68
2022/05/12 08:44:08;;;;;;;;;;;28.10;6.20;;;;;;5045353;28;20014;-68
2022/05/12 08:46:54;;;;;;;;;;;26.80;7.70;;;;;;5036445;28;20281;-68
2022/05/12 08:49:58;;;;;;;;;;;26.80;7.10;;;;;;5035063;28;19920;-68
2022/05/12 08:53:27;;;;;;;;;;;28.60;5.60;;;;;;5062449;28;19923;-68
2022/05/12 08:56:33;;;;;;;;;;;30.50;4.50;;;;;;5037735;28;19924;-68
2022/05/12 08:59:38;;;;;;;;;;;32.10;1.30;;;;;;5047785;28;19920;-69
2022/05/12 09:02:46;;;;;;;;;;;33.20;1.00;;;;;;5057042;28;20050;-69
2022/05/12 09:05:52;;;;;;;;;;;33.90;1.00;;;;;;5026290;28;19961;-68
2022/05/12 09:08:57;;;;;;;;;;;34.30;1.00;;;;;;5051426;28;19913;-68
2022/05/12 09:11:42;;;;;;;;;;;33.60;1.00;;;;;;5047098;28;19971;-68
2022/05/12 09:14:54;;;;;;;;;;;33.70;1.00;;;;;;5033227;28;19913;-69
2022/05/12 09:17:59;;;;;;;;;;;32.70;1.00;;;;;;5042434;28;19917;-68
2022/05/12 09:21:05;;;;;;;;;;;31.30;1.00;;;;;;5009779;28;20023;-68
2022/05/12 09:24:11;;;;;;;;;;;30.70;1.00;;;;;;5031176;28;19913;-68
2022/05/12 09:27:28;;;;;;;;;;;30.60;1.00;;;;;;5028923;28;19970;-68
2022/05/12 09:30:33;;;;;;;;;;;31.60;1.00;;;;;;5034403;28;19917;-68
2022/05/12 09:33:44;;;;;;;;;;;30.10;1.00;;;;;;5006237;28;19921;-68
2022/05/12 09:36:50;;;;;;;;;;;30.80;1.00;;;;;;5032693;28;19961;-69
2022/05/12 09:39:55;;;;;;;;;;;32.30;1.00;;;;;;5005850;28;19914;-66
2022/05/12 09:43:02;;;;;;;;;;;33.30;1.00;;;;;;5042044;28;20339;-68
2022/05/12 09:46:04;;;;;;;;;;;33.80;1.00;;;;;;5031730;28;20387;-68
2022/05/12 09:49:10;;;;;;;;;;;34.10;1.00;;;;;;5026966;28;20282;-68
2022/05/12 09:52:18;;;;;;;;;;;33.80;1.00;;;;;;5032333;28;20388;-68
2022/05/12 09:55:29;;;;;;;;;;;32.60;1.00;;;;;;5025339;28;19914;-68
2022/05/12 09:58:15;;;;;;;;;;;31.90;1.00;;;;;;5028471;28;19951;-68
2022/05/12 10:01:23;;;;;;;;;;;30.50;1.00;;;;;;5033017;28;20305;-68
2022/05/12 10:07:53;;;;;;;;;;;27.00;2.30;;;;;;5026182;28;19920;-68
2022/05/12 10:10:40;;;;;;;;;;;25.90;3.30;;;;;;5027700;28;20381;-61
2022/05/12 10:13:11;;;;;;;;;;;25.30;4.70;;;;;;5031556;28;20435;-61
2022/05/12 10:15:57;;;;;;;;;;;24.70;4.90;;;;;;5012044;28;19914;-61
2022/05/12 10:19:05;;;;;;;;;;;24.20;6.20;;;;;;5017009;28;19953;-61
2022/05/12 10:22:11;;;;;;;;;;;23.80;7.30;;;;;;5018571;28;19913;-61
2022/05/12 10:25:14;;;;;;;;;;;23.30;7.60;;;;;;5020175;28;19917;-61
2022/05/12 10:28:20;;;;;;;;;;;22.90;8.10;;;;;;5011381;28;19913;-61
2022/05/12 10:31:31;;;;;;;;;;;22.90;8.70;;;;;;5015172;28;19921;-61
2022/05/12 10:34:20;;;;;;;;;;;22.60;9.40;;;;;;5011473;28;20419;-61
2022/05/12 10:37:34;;;;;;;;;;;22.60;9.80;;;;;;5023282;28;19920;-61
2022/05/12 10:40:40;;;;;;;;;;;22.60;9.30;;;;;;5020068;28;19913;-61
2022/05/12 10:43:46;;;;;;;;;;;22.30;9.10;;;;;;5016597;28;19914;-61
2022/05/12 10:47:05;;;;;;;;;;;22.20;10.00;;;;;;5018182;28;19913;-61
2022/05/12 10:50:09;;;;;;;;;;;22.30;10.20;;;;;;5019850;28;19917;-61
2022/05/12 10:53:18;;;;;;;;;;;22.40;10.70;;;;;;5011072;28;19953;-61
2022/05/12 10:56:23;;;;;;;;;;;22.30;10.70;;;;;;5023020;28;19917;-61
2022/05/12 10:59:07;;;;;;;;;;;22.20;11.10;;;;;;5011028;28;19913;-60
2022/05/12 11:02:13;;;;;;;;;;;22.00;10.60;;;;;;5006339;28;19966;-61
2022/05/12 11:05:21;;;;;;;;;;;21.80;10.30;;;;;;4991291;28;19976;-61
2022/05/12 11:08:26;;;;;;;;;;;21.70;11.00;;;;;;5020599;28;19913;-61
2022/05/12 11:11:33;;;;;;;;;;;21.80;11.30;;;;;;5017624;28;19925;-67
2022/05/12 11:14:37;;;;;;;;;;;21.90;9.40;;;;;;5019618;28;19920;-67
2022/05/12 11:17:43;;;;;;;;;;;21.80;8.90;;;;;;5021124;28;19924;-67
2022/05/12 11:20:49;;;;;;;;;;;21.90;9.20;;;;;;5023129;28;20258;-66
2022/05/12 11:23:56;;;;;;;;;;;22.20;8.30;;;;;;5015987;28;20301;-67
2022/05/12 11:27:01;;;;;;;;;;;22.20;8.90;;;;;;5011463;28;19917;-67
2022/05/12 11:29:58;;;;;;;;;;;22.00;9.40;;;;;;4990832;28;20286;-66
2022/05/12 11:33:13;;;;;;;;;;;21.90;9.60;;;;;;5027496;28;19932;-68
2022/05/12 11:36:18;;;;;;;;;;;21.80;9.20;;;;;;5016974;28;20427;-67
2022/05/12 11:39:22;;;;;;;;;;;21.80;8.40;;;;;;5011827;28;19913;-67
2022/05/12 11:42:17;;;;;;;;;;;21.80;8.90;;;;;;5022373;28;19913;-67
2022/05/12 11:45:25;;;;;;;;;;;21.70;8.80;;;;;;4990863;28;19968;-67
2022/05/12 11:48:11;;;;;;;;;;;21.50;9.60;;;;;;4990678;28;19921;-67
2022/05/12 11:51:02;;;;;;;;;;;21.50;9.50;;;;;;4996905;28;19929;-67
2022/05/12 11:54:23;;;;;;;;;;;21.70;10.00;;;;;;5011514;28;20395;-67
2022/05/12 11:57:46;;;;;;;;;;;21.90;10.40;;;;;;5016885;28;19914;-67
2022/05/12 12:00:35;;;;;;;;;;;22.30;10.70;;;;;;5014737;28;19913;-66
2022/05/12 12:03:22;;;;;;;;;;;22.60;8.40;;;;;;5015340;28;19920;-67
2022/05/12 12:06:25;;;;;;;;;;;22.50;8.60;;;;;;5013436;28;19913;-67
2022/05/12 12:09:49;;;;;;;;;;;22.50;7.20;;;;;;5010305;28;20364;-67
2022/05/12 12:12:41;;;;;;;;;;;22.10;8.60;;;;;;5023102;28;20296;-67
2022/05/12 12:15:28;;;;;;;;;;;22.00;8.60;;;;;;5007864;28;19921;-67
2022/05/12 12:18:17;;;;;;;;;;;22.00;8.70;;;;;;5015319;28;20523;-67
2022/05/12 12:21:22;;;;;;;;;;;22.10;8.80;;;;;;5012685;28;19924;-67
2022/05/12 12:24:19;;;;;;;;;;;22.20;8.30;;;;;;5009442;28;19914;-67
2022/05/12 12:27:25;;;;;;;;;;;22.30;8.80;;;;;;5007474;28;19979;-67
2022/05/12 12:30:37;;;;;;;;;;;22.10;9.00;;;;;;5022148;28;19920;-67
2022/05/12 12:33:25;;;;;;;;;;;22.00;8.50;;;;;;5020431;28;19944;-68
2022/05/12 12:36:15;;;;;;;;;;;21.70;8.80;;;;;;4994860;28;20016;-68
2022/05/12 12:39:25;;;;;;;;;;;21.60;8.40;;;;;;4990240;28;19924;-68
2022/05/12 12:42:20;;;;;;;;;;;21.70;9.00;;;;;;5005875;28;20383;-68
2022/05/12 12:45:28;;;;;;;;;;;21.70;8.50;;;;;;4986304;28;19986;-67
2022/05/12 12:48:33;;;;;;;;;;;21.80;8.60;;;;;;5015560;28;19914;-68
2022/05/12 12:51:33;;;;;;;;;;;21.90;7.40;;;;;;5013599;28;19921;-68
2022/05/12 12:57:23;;;;;;;;;;;22.00;8.20;;;;;;5004300;28;19982;-68
2022/05/12 13:00:27;;;;;;;;;;;22.10;8.50;;;;;;5010999;28;19918;-68
2022/05/12 13:03:39;;;;;;;;;;;22.20;7.70;;;;;;5024684;28;19913;-69
2022/05/12 13:06:44;;;;;;;;;;;22.30;7.80;;;;;;5005233;28;19917;-69
2022/05/12 13:09:49;;;;;;;;;;;22.40;8.00;;;;;;4989026;28;19922;-68
2022/05/12 13:12:36;;;;;;;;;;;22.30;7.80;;;;;;5022642;28;19955;-69
2022/05/12 13:15:01;;;;;;;;;;;22.10;8.30;;;;;;5029023;28;19924;-69
2022/05/12 13:17:30;;;;;;;;;;;22.00;8.30;;;;;;4993531;28;20049;-68
2022/05/12 13:19:57;;;;;;;;;;;22.00;8.20;;;;;;5028664;28;19913;-68
2022/05/12 13:22:25;;;;;;;;;;;21.90;8.50;;;;;;5008569;28;19921;-68
2022/05/12 13:24:50;;;;;;;;;;;21.80;9.00;;;;;;5028939;28;19909;-68
2022/05/12 13:27:19;;;;;;;;;;;21.70;8.50;;;;;;5007177;28;20016;-68
2022/05/12 13:29:45;;;;;;;;;;;21.70;8.80;;;;;;5028637;28;19909;-68
2022/05/12 13:32:30;;;;;;;;;;;21.80;9.00;;;;;;5006508;28;19969;-69
2022/05/12 13:34:57;;;;;;;;;;;21.80;8.70;;;;;;5028208;28;19913;-70
2022/05/12 13:37:27;;;;;;;;;;;21.70;9.50;;;;;;5008622;28;20009;-69
2022/05/12 13:39:54;;;;;;;;;;;21.70;9.10;;;;;;5032614;28;19921;-68
2022/05/12 13:42:28;;;;;;;;;;;21.80;9.10;;;;;;5011766;28;19913;-68
2022/05/12 13:44:55;;;;;;;;;;;21.70;9.00;;;;;;5032621;28;19913;-68
2022/05/12 13:47:22;;;;;;;;;;;21.50;9.80;;;;;;5011789;28;19917;-67
2022/05/12 13:49:49;;;;;;;;;;;21.50;10.20;;;;;;5032423;28;19909;-68
2022/05/12 13:52:16;;;;;;;;;;;21.30;10.20;;;;;;5010555;28;19928;-69
2022/05/12 13:55:01;;;;;;;;;;;21.10;9.80;;;;;;5032437;28;19909;-68
2022/05/12 13:57:33;;;;;;;;;;;20.90;10.90;;;;;;5012249;28;19975;-68
2022/05/12 14:00:00;;;;;;;;;;;20.70;10.70;;;;;;5027248;28;20290;-67
2022/05/12 14:02:48;;;;;;;;;;;20.60;10.90;;;;;;5008276;28;19925;-68
2022/05/12 14:05:53;;;;;;;;;;;20.70;10.30;;;;;;5011318;28;19917;-68
2022/05/12 14:08:59;;;;;;;;;;;20.90;11.00;;;;;;5015890;28;20445;-67
2022/05/12 14:12:14;;;;;;;;;;;21.00;10.40;;;;;;5004350;28;20384;-67
2022/05/12 14:21:48;;;;;;;;;;;20.90;9.50;;;;;;5012673;28;20003;-68
2022/05/12 14:24:54;;;;;;;;;;;20.80;10.30;;;;;;5025881;28;19925;-68
2022/05/12 14:27:59;;;;;;;;;;;20.90;10.00;;;;;;4998139;28;19920;-67
2022/05/12 14:31:04;;;;;;;;;;;21.00;9.70;;;;;;5011715;28;20621;-68
2022/05/12 14:34:09;;;;;;;;;;;20.80;10.10;;;;;;5026476;28;19913;-68
2022/05/12 14:37:15;;;;;;;;;;;20.60;9.30;;;;;;5009937;28;19913;-68
2022/05/12 14:40:20;;;;;;;;;;;20.40;9.50;;;;;;5021049;28;20004;-69
2022/05/12 14:43:25;;;;;;;;;;;20.40;9.10;;;;;;5020238;28;19917;-68
2022/05/12 14:46:31;;;;;;;;;;;20.40;9.20;;;;;;5015283;28;19917;-68
2022/05/12 14:49:39;;;;;;;;;;;20.40;9.40;;;;;;4999316;28;19921;-68
2022/05/12 14:52:44;;;;;;;;;;;20.40;9.60;;;;;;5008370;28;19925;-68
2022/05/12 14:55:51;;;;;;;;;;;20.50;9.20;;;;;;5008544;28;19996;-68
2022/05/12 14:58:55;;;;;;;;;;;20.60;8.90;;;;;;5020998;28;20023;-68
2022/05/12 15:02:01;;;;;;;;;;;20.60;9.50;;;;;;5024035;28;19966;-68
2022/05/12 15:05:06;;;;;;;;;;;20.50;10.30;;;;;;5025063;28;19924;-68
2022/05/12 15:08:11;;;;;;;;;;;20.40;9.60;;;;;;5020385;28;19935;-67
2022/05/12 15:11:16;;;;;;;;;;;20.30;10.20;;;;;;5024468;28;20014;-61
2022/05/12 15:14:22;;;;;;;;;;;20.10;9.50;;;;;;5012546;28;20459;-61
2022/05/12 15:17:27;;;;;;;;;;;20.00;9.60;;;;;;4994457;28;19914;-61
2022/05/12 15:20:33;;;;;;;;;;;20.00;10.30;;;;;;4996432;28;19922;-60
2022/05/12 15:23:38;;;;;;;;;;;19.90;10.90;;;;;;4990239;28;19910;-61
2022/05/12 15:26:43;;;;;;;;;;;19.90;10.90;;;;;;5022179;28;19925;-61
2022/05/12 15:29:49;;;;;;;;;;;19.90;11.40;;;;;;4990016;28;19969;-61
2022/05/12 15:32:55;;;;;;;;;;;20.00;12.70;;;;;;5027148;28;20000;-61
2022/05/12 15:35:59;;;;;;;;;;;20.20;11.10;;;;;;5011406;28;19917;-61
2022/05/12 15:39:04;;;;;;;;;;;20.30;11.10;;;;;;5010871;28;19918;-60
2022/05/12 15:42:10;;;;;;;;;;;20.20;10.80;;;;;;5014122;28;20295;-61
2022/05/12 15:45:16;;;;;;;;;;;20.20;10.90;;;;;;5018017;28;20315;-61
2022/05/12 15:48:21;;;;;;;;;;;20.10;10.70;;;;;;5023383;28;19969;-60
2022/05/12 15:51:26;;;;;;;;;;;20.10;10.00;;;;;;5015804;28;19921;-60
2022/05/12 15:54:31;;;;;;;;;;;20.00;10.60;;;;;;5008993;28;20004;-60
2022/05/12 15:57:37;;;;;;;;;;;19.90;10.60;;;;;;5024045;28;19917;-60
2022/05/12 16:00:42;;;;;;;;;;;19.90;10.80;;;;;;5016256;28;19921;-60
2022/05/12 16:03:48;;;;;;;;;;;19.80;10.90;;;;;;5013892;28;20279;-60
2022/05/12 16:06:53;;;;;;;;;;;19.90;11.50;;;;;;5008758;28;19927;-60
2022/05/12 16:09:39;;;;;;;;;;;19.90;11.60;;;;;;5009412;28;19940;-66
2022/05/12 16:14:41;;;;;;;;;;;19.60;12.40;;;;;;5020977;28;20002;-66
2022/05/12 16:17:07;;;;;;;;;;;19.50;12.60;;;;;;5001198;28;20144;-67
2022/05/12 16:19:32;;;;;;;;;;;19.40;12.70;;;;;;5025478;28;20510;-67
2022/05/12 16:21:58;;;;;;;;;;;19.40;12.70;;;;;;5028099;28;19992;-66
2022/05/12 16:24:23;;;;;;;;;;;19.40;13.00;;;;;;5016918;28;19917;-68
2022/05/12 16:26:50;;;;;;;;;;;19.60;12.70;;;;;;5008885;28;19925;-66
2022/05/12 16:29:17;;;;;;;;;;;19.60;12.10;;;;;;5025685;28;19914;-67
2022/05/12 16:31:43;;;;;;;;;;;19.70;12.10;;;;;;5008009;28;19926;-68
2022/05/12 16:34:08;;;;;;;;;;;19.60;12.30;;;;;;5040611;28;19943;-66
2022/05/12 16:36:34;;;;;;;;;;;19.60;12.50;;;;;;5024054;28;20262;-67
2022/05/12 16:39:00;;;;;;;;;;;19.60;11.90;;;;;;5025225;28;20000;-66
2022/05/12 16:41:27;;;;;;;;;;;19.50;12.00;;;;;;5008370;28;19914;-68
2022/05/12 16:43:52;;;;;;;;;;;19.40;12.60;;;;;;5011512;28;19980;-65
2022/05/12 16:46:18;;;;;;;;;;;19.30;12.70;;;;;;5028019;28;19925;-67
2022/05/12 16:48:44;;;;;;;;;;;19.30;13.00;;;;;;5011147;28;20380;-67
2022/05/12 16:51:10;;;;;;;;;;;19.30;13.00;;;;;;5022215;28;19975;-66
2022/05/12 16:53:35;;;;;;;;;;;19.30;13.10;;;;;;5009415;28;19916;-67
2022/05/12 16:56:01;;;;;;;;;;;19.30;14.10;;;;;;5027540;28;19920;-67
2022/05/12 16:58:27;;;;;;;;;;;19.20;14.10;;;;;;5007882;28;19963;-67